sensor_id;sensor_type;location;lat;lon;timestamp;pressure;altitude;pressure_sealevel;temperature;humidity
25526;BME280;13424;48.424;11.258;2023-05-19T00:02:20;96076.53;;;12.76;69.32
25526;BME280;13424;48.424;11.258;2023-05-19T00:04:46;96080.84;;;12.94;68.81
25526;BME280;13424;48.424;11.258;2023-05-19T00:07:12;96082.94;;;12.75;70.13
25526;BME280;13424;48.424;11.258;2023-05-19T00:09:41;96073.81;;;12.59;70.52
25526;BME280;13424;48.424;11.258;2023-05-19T00:12:07;96075.69;;;13.21;68.53
25526;BME280;13424;48.424;11.258;2023-05-19T00:14:35;96080.13;;;13.15;68.47
25526;BME280;13424;48.424;11.258;2023-05-19T00:21:08;96077.28;;;12.88;69.45
25526;BME280;13424;48.424;11.258;2023-05-19T00:23:33;96070.94;;;13.11;68.76
25526;BME280;13424;48.424;11.258;2023-05-19T00:25:59;96072.91;;;13.16;68.79
25526;BME280;13424;48.424;11.258;2023-05-19T00:28:25;96072.41;;;13.02;68.56
25526;BME280;13424;48.424;11.258;2023-05-19T00:30:51;96059.91;;;12.74;69.69
25526;BME280;13424;48.424;11.258;2023-05-19T00:33:17;96067.03;;;13.02;69.07
25526;BME280;13424;48.424;11.258;2023-05-19T00:35:43;96063.81;;;12.83;69.31
25526;BME280;13424;48.424;11.258;2023-05-19T00:38:08;96066.31;;;13.06;68.79
25526;BME280;13424;48.424;11.258;2023-05-19T00:40:34;96060.31;;;12.99;69.11
25526;BME280;13424;48.424;11.258;2023-05-19T00:43:03;96059.09;;;13.07;69.02
25526;BME280;13424;48.424;11.258;2023-05-19T00:45:33;96060.56;;;12.81;69.77
25526;BME280;13424;48.424;11.258;2023-05-19T00:47:59;96051.13;;;12.95;68.78
25526;BME280;13424;48.424;11.258;2023-05-19T00:50:26;96047.28;;;13.20;68.24
25526;BME280;13424;48.424;11.258;2023-05-19T00:52:54;96051.47;;;13.16;68.68
25526;BME280;13424;48.424;11.258;2023-05-19T00:55:22;96054.88;;;12.94;69.53
25526;BME280;13424;48.424;11.258;2023-05-19T00:57:52;96048.91;;;13.04;69.13
25526;BME280;13424;48.424;11.258;2023-05-19T01:04:25;96038.09;;;12.99;68.51
25526;BME280;13424;48.424;11.258;2023-05-19T01:06:51;96030.38;;;12.69;69.91
25526;BME280;13424;48.424;11.258;2023-05-19T01:09:25;96033.34;;;12.55;70.12
25526;BME280;13424;48.424;11.258;2023-05-19T01:11:51;96024.44;;;12.21;71.04
25526;BME280;13424;48.424;11.258;2023-05-19T01:14:18;96020.94;;;12.33;70.10
25526;BME280;13424;48.424;11.258;2023-05-19T01:17:12;96022.06;;;12.53;69.97
25526;BME280;13424;48.424;11.258;2023-05-19T01:20:08;96020.06;;;12.77;69.55
25526;BME280;13424;48.424;11.258;2023-05-19T01:22:50;96021.03;;;12.54;69.84
25526;BME280;13424;48.424;11.258;2023-05-19T01:28:45;96026.47;;;12.60;69.65
25526;BME280;13424;48.424;11.258;2023-05-19T01:31:16;96025.44;;;12.32;70.90
25526;BME280;13424;48.424;11.258;2023-05-19T01:33:48;96028.66;;;12.63;69.98
25526;BME280;13424;48.424;11.258;2023-05-19T01:36:16;96034.09;;;12.68;69.53
25526;BME280;13424;48.424;11.258;2023-05-19T01:38:45;96029.38;;;12.41;69.93
25526;BME280;13424;48.424;11.258;2023-05-19T01:41:11;96039.75;;;12.54;69.64
25526;BME280;13424;48.424;11.258;2023-05-19T01:43:43;96028.72;;;12.51;69.22
25526;BME280;13424;48.424;11.258;2023-05-19T01:46:10;96035.50;;;12.25;70.38
25526;BME280;13424;48.424;11.258;2023-05-19T01:48:36;96033.09;;;12.40;69.84
25526;BME280;13424;48.424;11.258;2023-05-19T01:51:02;96038.28;;;11.90;71.08
25526;BME280;13424;48.424;11.258;2023-05-19T01:54:22;96035.84;;;12.45;70.01
25526;BME280;13424;48.424;11.258;2023-05-19T02:00:10;96029.56;;;12.23;70.34
25526;BME280;13424;48.424;11.258;2023-05-19T02:03:12;96035.38;;;12.48;69.33
25526;BME280;13424;48.424;11.258;2023-05-19T02:09:11;96033.41;;;12.15;70.20
25526;BME280;13424;48.424;11.258;2023-05-19T02:14:20;96027.94;;;12.22;69.56
25526;BME280;13424;48.424;11.258;2023-05-19T02:16:49;96038.38;;;12.23;69.80
25526;BME280;13424;48.424;11.258;2023-05-19T02:19:34;96032.44;;;12.33;69.57
25526;BME280;13424;48.424;11.258;2023-05-19T02:22:00;96029.03;;;12.38;69.05
25526;BME280;13424;48.424;11.258;2023-05-19T02:24:26;96030.25;;;12.47;69.32
25526;BME280;13424;48.424;11.258;2023-05-19T02:26:52;96025.44;;;12.32;69.42
25526;BME280;13424;48.424;11.258;2023-05-19T02:29:19;96025.25;;;12.22;69.60
25526;BME280;13424;48.424;11.258;2023-05-19T02:31:46;96018.31;;;12.38;68.88
25526;BME280;13424;48.424;11.258;2023-05-19T02:34:12;96021.72;;;12.33;69.50
25526;BME280;13424;48.424;11.258;2023-05-19T02:36:40;96011.88;;;12.50;68.88
25526;BME280;13424;48.424;11.258;2023-05-19T02:39:11;96010.66;;;12.41;69.60
25526;BME280;13424;48.424;11.258;2023-05-19T02:41:37;96009.56;;;12.25;69.79
25526;BME280;13424;48.424;11.258;2023-05-19T02:44:03;96010.41;;;12.43;69.18
25526;BME280;13424;48.424;11.258;2023-05-19T02:46:30;96016.63;;;12.03;70.26
25526;BME280;13424;48.424;11.258;2023-05-19T02:48:55;96011.34;;;12.37;68.97
25526;BME280;13424;48.424;11.258;2023-05-19T02:51:21;96012.38;;;12.19;69.99
25526;BME280;13424;48.424;11.258;2023-05-19T02:53:47;96013.19;;;12.65;68.54
25526;BME280;13424;48.424;11.258;2023-05-19T02:56:13;96006.97;;;12.47;69.27
25526;BME280;13424;48.424;11.258;2023-05-19T02:58:39;96006.06;;;12.25;69.95
25526;BME280;13424;48.424;11.258;2023-05-19T03:01:08;96006.69;;;12.15;70.51
25526;BME280;13424;48.424;11.258;2023-05-19T03:03:34;96014.09;;;11.96;70.86
25526;BME280;13424;48.424;11.258;2023-05-19T03:06:00;96009.13;;;11.88;70.83
25526;BME280;13424;48.424;11.258;2023-05-19T03:08:27;96001.28;;;12.27;69.47
25526;BME280;13424;48.424;11.258;2023-05-19T03:10:52;96006.06;;;11.96;70.82
25526;BME280;13424;48.424;11.258;2023-05-19T03:13:18;96004.31;;;12.02;70.60
25526;BME280;13424;48.424;11.258;2023-05-19T03:15:44;95997.38;;;12.18;70.08
25526;BME280;13424;48.424;11.258;2023-05-19T03:18:10;96001.72;;;12.07;70.77
25526;BME280;13424;48.424;11.258;2023-05-19T03:20:38;95991.81;;;12.08;70.47
25526;BME280;13424;48.424;11.258;2023-05-19T03:23:06;95987.47;;;12.01;70.61
25526;BME280;13424;48.424;11.258;2023-05-19T03:25:33;95994.03;;;12.11;70.09
25526;BME280;13424;48.424;11.258;2023-05-19T03:27:59;95993.94;;;12.06;70.76
25526;BME280;13424;48.424;11.258;2023-05-19T03:30:25;95996.56;;;12.17;70.60
25526;BME280;13424;48.424;11.258;2023-05-19T03:33:10;95988.69;;;12.11;70.67
25526;BME280;13424;48.424;11.258;2023-05-19T03:35:36;95992.69;;;11.96;71.10
25526;BME280;13424;48.424;11.258;2023-05-19T03:38:03;95988.81;;;12.33;70.04
25526;BME280;13424;48.424;11.258;2023-05-19T03:40:29;95987.97;;;12.15;70.80
25526;BME280;13424;48.424;11.258;2023-05-19T03:43:02;95992.31;;;12.05;70.85
25526;BME280;13424;48.424;11.258;2023-05-19T03:45:28;95989.53;;;11.99;71.28
25526;BME280;13424;48.424;11.258;2023-05-19T03:47:54;95989.31;;;12.46;70.03
25526;BME280;13424;48.424;11.258;2023-05-19T03:50:32;95994.88;;;12.28;70.74
25526;BME280;13424;48.424;11.258;2023-05-19T03:53:08;95992.88;;;12.35;70.40
25526;BME280;13424;48.424;11.258;2023-05-19T03:56:26;95998.13;;;12.30;70.06
25526;BME280;13424;48.424;11.258;2023-05-19T03:58:52;95994.66;;;12.46;69.68
25526;BME280;13424;48.424;11.258;2023-05-19T04:01:22;95992.59;;;12.65;69.11
25526;BME280;13424;48.424;11.258;2023-05-19T04:03:48;96004.91;;;11.92;71.81
25526;BME280;13424;48.424;11.258;2023-05-19T04:06:14;95995.31;;;12.53;69.92
25526;BME280;13424;48.424;11.258;2023-05-19T04:08:40;95995.34;;;13.04;68.50
25526;BME280;13424;48.424;11.258;2023-05-19T04:11:05;95994.44;;;12.98;68.98
25526;BME280;13424;48.424;11.258;2023-05-19T04:13:32;95999.25;;;12.96;69.06
25526;BME280;13424;48.424;11.258;2023-05-19T04:15:58;95998.50;;;12.84;69.35
25526;BME280;13424;48.424;11.258;2023-05-19T04:18:25;96009.19;;;13.01;69.11
25526;BME280;13424;48.424;11.258;2023-05-19T04:20:50;95999.38;;;13.06;69.04
25526;BME280;13424;48.424;11.258;2023-05-19T04:23:18;95994.34;;;13.27;68.47
25526;BME280;13424;48.424;11.258;2023-05-19T04:25:50;95989.78;;;13.10;68.83
25526;BME280;13424;48.424;11.258;2023-05-19T04:28:17;95988.94;;;13.22;68.96
25526;BME280;13424;48.424;11.258;2023-05-19T04:30:43;95994.34;;;12.93;69.74
25526;BME280;13424;48.424;11.258;2023-05-19T04:33:11;95988.13;;;13.04;69.51
25526;BME280;13424;48.424;11.258;2023-05-19T04:35:38;95994.00;;;13.40;68.61
25526;BME280;13424;48.424;11.258;2023-05-19T04:38:06;95984.97;;;12.91;69.95
25526;BME280;13424;48.424;11.258;2023-05-19T04:40:33;95996.31;;;12.81;70.65
25526;BME280;13424;48.424;11.258;2023-05-19T04:42:59;95993.69;;;12.52;71.54
25526;BME280;13424;48.424;11.258;2023-05-19T04:45:27;95995.97;;;12.61;71.49
25526;BME280;13424;48.424;11.258;2023-05-19T04:47:56;95989.75;;;12.72;71.58
25526;BME280;13424;48.424;11.258;2023-05-19T04:50:23;95991.63;;;12.88;71.28
25526;BME280;13424;48.424;11.258;2023-05-19T04:52:58;95990.63;;;12.61;72.38
25526;BME280;13424;48.424;11.258;2023-05-19T04:55:25;95989.22;;;13.08;71.05
25526;BME280;13424;48.424;11.258;2023-05-19T04:57:50;95990.00;;;13.21;70.76
25526;BME280;13424;48.424;11.258;2023-05-19T05:00:19;95993.72;;;13.20;70.61
25526;BME280;13424;48.424;11.258;2023-05-19T05:03:47;95992.03;;;13.19;70.54
25526;BME280;13424;48.424;11.258;2023-05-19T05:06:13;95984.94;;;13.24;70.81
25526;BME280;13424;48.424;11.258;2023-05-19T05:08:38;95984.63;;;13.21;71.02
25526;BME280;13424;48.424;11.258;2023-05-19T05:11:06;95986.38;;;13.32;71.26
25526;BME280;13424;48.424;11.258;2023-05-19T05:13:39;95985.50;;;13.26;70.92
25526;BME280;13424;48.424;11.258;2023-05-19T05:16:05;95984.94;;;13.07;71.41
25526;BME280;13424;48.424;11.258;2023-05-19T05:18:34;95992.56;;;13.16;71.17
25526;BME280;13424;48.424;11.258;2023-05-19T05:21:01;95990.47;;;12.84;71.69
25526;BME280;13424;48.424;11.258;2023-05-19T05:23:28;95987.88;;;12.89;71.98
25526;BME280;13424;48.424;11.258;2023-05-19T05:25:55;95984.94;;;13.24;71.59
25526;BME280;13424;48.424;11.258;2023-05-19T05:28:21;95983.84;;;13.42;70.42
25526;BME280;13424;48.424;11.258;2023-05-19T05:30:47;95983.84;;;13.64;70.41
25526;BME280;13424;48.424;11.258;2023-05-19T05:33:14;95977.44;;;14.14;69.87
25526;BME280;13424;48.424;11.258;2023-05-19T05:35:40;95982.31;;;14.17;68.31
25526;BME280;13424;48.424;11.258;2023-05-19T05:38:08;95989.66;;;14.00;68.92
25526;BME280;13424;48.424;11.258;2023-05-19T05:40:45;95986.78;;;14.06;68.84
25526;BME280;13424;48.424;11.258;2023-05-19T05:43:11;95975.78;;;14.08;69.16
25526;BME280;13424;48.424;11.258;2023-05-19T05:45:44;95977.69;;;13.63;69.46
25526;BME280;13424;48.424;11.258;2023-05-19T05:48:10;95985.41;;;13.38;70.58
25526;BME280;13424;48.424;11.258;2023-05-19T05:50:36;95985.97;;;13.84;69.91
25526;BME280;13424;48.424;11.258;2023-05-19T05:53:02;95981.84;;;14.47;67.29
25526;BME280;13424;48.424;11.258;2023-05-19T05:55:39;95987.78;;;13.56;70.02
25526;BME280;13424;48.424;11.258;2023-05-19T05:58:06;95988.84;;;13.77;69.23
25526;BME280;13424;48.424;11.258;2023-05-19T06:00:36;95989.09;;;13.54;69.54
25526;BME280;13424;48.424;11.258;2023-05-19T06:03:02;95987.81;;;13.39;70.90
25526;BME280;13424;48.424;11.258;2023-05-19T06:05:29;95986.69;;;14.23;69.26
25526;BME280;13424;48.424;11.258;2023-05-19T06:07:56;95989.69;;;14.05;69.05
25526;BME280;13424;48.424;11.258;2023-05-19T06:10:25;95990.41;;;13.73;69.08
25526;BME280;13424;48.424;11.258;2023-05-19T06:12:52;95994.00;;;14.06;69.61
25526;BME280;13424;48.424;11.258;2023-05-19T06:15:21;95986.56;;;14.40;68.32
25526;BME280;13424;48.424;11.258;2023-05-19T06:17:57;95990.84;;;14.14;69.10
25526;BME280;13424;48.424;11.258;2023-05-19T06:20:22;95998.09;;;14.13;69.00
25526;BME280;13424;48.424;11.258;2023-05-19T06:22:48;95989.47;;;14.60;68.51
25526;BME280;13424;48.424;11.258;2023-05-19T06:25:17;95991.38;;;14.97;67.02
25526;BME280;13424;48.424;11.258;2023-05-19T06:27:43;95988.75;;;15.07;66.52
25526;BME280;13424;48.424;11.258;2023-05-19T06:30:09;95982.72;;;15.32;65.91
25526;BME280;13424;48.424;11.258;2023-05-19T06:32:46;95988.88;;;15.22;65.91
25526;BME280;13424;48.424;11.258;2023-05-19T06:35:12;95997.31;;;15.41;65.75
25526;BME280;13424;48.424;11.258;2023-05-19T06:37:38;95999.31;;;16.24;64.38
25526;BME280;13424;48.424;11.258;2023-05-19T06:40:05;96004.78;;;15.76;64.59
25526;BME280;13424;48.424;11.258;2023-05-19T06:42:31;95995.22;;;15.53;63.93
25526;BME280;13424;48.424;11.258;2023-05-19T06:45:06;95991.31;;;14.87;66.55
25526;BME280;13424;48.424;11.258;2023-05-19T06:47:32;95994.69;;;15.09;65.49
25526;BME280;13424;48.424;11.258;2023-05-19T06:49:58;95996.13;;;16.47;64.93
25526;BME280;13424;48.424;11.258;2023-05-19T06:52:28;95997.78;;;15.75;63.58
25526;BME280;13424;48.424;11.258;2023-05-19T06:54:55;95986.00;;;14.97;64.55
25526;BME280;13424;48.424;11.258;2023-05-19T06:57:21;96002.28;;;15.17;65.59
25526;BME280;13424;48.424;11.258;2023-05-19T06:59:46;95995.94;;;15.33;63.96
25526;BME280;13424;48.424;11.258;2023-05-19T07:02:13;95993.56;;;16.00;64.26
25526;BME280;13424;48.424;11.258;2023-05-19T07:04:39;95992.50;;;16.01;63.26
25526;BME280;13424;48.424;11.258;2023-05-19T07:07:05;95994.72;;;16.14;63.78
25526;BME280;13424;48.424;11.258;2023-05-19T07:09:32;96002.00;;;16.29;63.09
25526;BME280;13424;48.424;11.258;2023-05-19T07:11:58;95995.56;;;15.20;63.30
25526;BME280;13424;48.424;11.258;2023-05-19T07:14:24;96001.31;;;15.33;63.10
25526;BME280;13424;48.424;11.258;2023-05-19T07:20:58;96004.78;;;15.76;63.47
25526;BME280;13424;48.424;11.258;2023-05-19T07:23:24;95998.72;;;15.54;63.15
25526;BME280;13424;48.424;11.258;2023-05-19T07:25:54;96007.28;;;15.41;64.74
25526;BME280;13424;48.424;11.258;2023-05-19T07:28:21;96006.44;;;14.98;64.95
25526;BME280;13424;48.424;11.258;2023-05-19T07:30:46;96000.03;;;15.04;63.76
25526;BME280;13424;48.424;11.258;2023-05-19T07:33:14;95996.31;;;15.10;64.58
25526;BME280;13424;48.424;11.258;2023-05-19T07:35:40;96002.53;;;15.58;63.46
25526;BME280;13424;48.424;11.258;2023-05-19T07:38:05;95999.78;;;15.05;64.12
25526;BME280;13424;48.424;11.258;2023-05-19T07:40:32;96003.53;;;14.72;65.45
25526;BME280;13424;48.424;11.258;2023-05-19T07:42:57;95990.78;;;14.90;65.74
25526;BME280;13424;48.424;11.258;2023-05-19T07:45:23;96006.09;;;15.26;64.62
25526;BME280;13424;48.424;11.258;2023-05-19T07:47:49;95995.28;;;14.79;67.04
25526;BME280;13424;48.424;11.258;2023-05-19T07:50:15;96001.00;;;15.72;64.87
25526;BME280;13424;48.424;11.258;2023-05-19T07:52:40;95996.19;;;15.74;63.61
25526;BME280;13424;48.424;11.258;2023-05-19T07:55:06;95995.94;;;15.33;63.96
25526;BME280;13424;48.424;11.258;2023-05-19T07:57:41;95999.69;;;14.95;64.31
25526;BME280;13424;48.424;11.258;2023-05-19T08:00:07;96000.16;;;15.24;62.98
25526;BME280;13424;48.424;11.258;2023-05-19T08:02:37;95996.38;;;14.83;64.31
25526;BME280;13424;48.424;11.258;2023-05-19T08:05:03;95988.41;;;15.35;64.05
25526;BME280;13424;48.424;11.258;2023-05-19T08:07:29;95993.59;;;15.05;64.19
25526;BME280;13424;48.424;11.258;2023-05-19T08:09:55;95998.28;;;14.88;63.74
25526;BME280;13424;48.424;11.258;2023-05-19T08:12:20;95996.16;;;14.90;63.76
25526;BME280;13424;48.424;11.258;2023-05-19T08:14:46;95998.84;;;15.32;63.07
25526;BME280;13424;48.424;11.258;2023-05-19T08:21:19;95981.69;;;15.38;61.81
25526;BME280;13424;48.424;11.258;2023-05-19T08:23:44;95985.06;;;16.28;59.32
25526;BME280;13424;48.424;11.258;2023-05-19T08:26:10;95985.88;;;15.61;60.51
25526;BME280;13424;48.424;11.258;2023-05-19T08:28:38;95984.50;;;16.21;60.09
25526;BME280;13424;48.424;11.258;2023-05-19T08:31:04;95981.06;;;16.56;59.12
25526;BME280;13424;48.424;11.258;2023-05-19T08:33:30;95993.13;;;16.33;60.46
25526;BME280;13424;48.424;11.258;2023-05-19T08:35:56;95993.97;;;16.44;58.89
25526;BME280;13424;48.424;11.258;2023-05-19T08:38:24;95990.84;;;15.84;58.95
25526;BME280;13424;48.424;11.258;2023-05-19T08:40:51;95987.31;;;15.31;60.26
25526;BME280;13424;48.424;11.258;2023-05-19T08:43:16;95995.97;;;15.44;60.09
25526;BME280;13424;48.424;11.258;2023-05-19T08:45:43;95990.84;;;15.37;60.73
25526;BME280;13424;48.424;11.258;2023-05-19T08:48:13;95989.53;;;15.45;60.85
25526;BME280;13424;48.424;11.258;2023-05-19T08:50:41;95991.38;;;15.39;61.45
25526;BME280;13424;48.424;11.258;2023-05-19T08:53:18;95986.44;;;15.63;61.13
25526;BME280;13424;48.424;11.258;2023-05-19T08:56:36;95987.22;;;16.31;59.88
25526;BME280;13424;48.424;11.258;2023-05-19T08:59:03;95982.19;;;16.70;59.08
25526;BME280;13424;48.424;11.258;2023-05-19T09:01:29;95980.03;;;16.93;59.30
25526;BME280;13424;48.424;11.258;2023-05-19T09:03:55;95979.19;;;17.23;57.91
25526;BME280;13424;48.424;11.258;2023-05-19T09:06:21;95975.44;;;16.93;57.32
25526;BME280;13424;48.424;11.258;2023-05-19T09:08:47;95978.38;;;16.51;58.29
25526;BME280;13424;48.424;11.258;2023-05-19T09:11:13;95982.47;;;16.84;59.66
25526;BME280;13424;48.424;11.258;2023-05-19T09:13:39;95971.69;;;16.84;59.23
25526;BME280;13424;48.424;11.258;2023-05-19T09:16:06;95967.81;;;16.34;58.91
25526;BME280;13424;48.424;11.258;2023-05-19T09:18:32;95968.34;;;16.26;59.92
25526;BME280;13424;48.424;11.258;2023-05-19T09:21:00;95967.81;;;16.14;61.21
25526;BME280;13424;48.424;11.258;2023-05-19T09:24:04;95969.72;;;16.49;59.54
25526;BME280;13424;48.424;11.258;2023-05-19T09:26:41;95971.63;;;16.38;59.91
25526;BME280;13424;48.424;11.258;2023-05-19T09:29:17;95975.91;;;16.29;59.98
25526;BME280;13424;48.424;11.258;2023-05-19T09:35:55;95968.56;;;15.99;61.20
25526;BME280;13424;48.424;11.258;2023-05-19T09:38:25;95963.41;;;15.87;61.02
25526;BME280;13424;48.424;11.258;2023-05-19T09:40:59;95965.44;;;16.63;59.82
25526;BME280;13424;48.424;11.258;2023-05-19T09:43:31;95971.91;;;16.52;62.02
25526;BME280;13424;48.424;11.258;2023-05-19T09:46:18;95973.75;;;16.21;60.07
25526;BME280;13424;48.424;11.258;2023-05-19T09:48:58;95962.31;;;15.83;61.28
25526;BME280;13424;48.424;11.258;2023-05-19T09:51:24;95953.53;;;16.18;61.92
25526;BME280;13424;48.424;11.258;2023-05-19T09:53:51;95965.69;;;16.57;61.11
25526;BME280;13424;48.424;11.258;2023-05-19T09:56:17;95961.38;;;16.51;60.95
25526;BME280;13424;48.424;11.258;2023-05-19T09:58:48;95965.16;;;17.21;57.74
25526;BME280;13424;48.424;11.258;2023-05-19T10:01:14;95960.78;;;17.45;57.63
25526;BME280;13424;48.424;11.258;2023-05-19T10:03:39;95965.72;;;17.18;59.89
25526;BME280;13424;48.424;11.258;2023-05-19T10:06:06;95952.22;;;16.31;61.60
25526;BME280;13424;48.424;11.258;2023-05-19T10:08:33;95958.00;;;15.72;63.29
25526;BME280;13424;48.424;11.258;2023-05-19T10:11:00;95948.19;;;16.29;60.74
25526;BME280;13424;48.424;11.258;2023-05-19T10:13:26;95956.00;;;16.51;60.20
25526;BME280;13424;48.424;11.258;2023-05-19T10:15:53;95961.94;;;16.47;61.36
25526;BME280;13424;48.424;11.258;2023-05-19T10:18:20;95957.16;;;16.75;61.26
25526;BME280;13424;48.424;11.258;2023-05-19T10:20:47;95954.34;;;16.24;60.45
25526;BME280;13424;48.424;11.258;2023-05-19T10:23:14;95954.63;;;16.23;61.68
25526;BME280;13424;48.424;11.258;2023-05-19T10:25:40;95940.09;;;16.24;62.16
25526;BME280;13424;48.424;11.258;2023-05-19T10:28:12;95940.91;;;16.29;61.96
25526;BME280;13424;48.424;11.258;2023-05-19T10:30:45;95946.78;;;16.11;62.43
25526;BME280;13424;48.424;11.258;2023-05-19T10:37:16;95954.63;;;16.12;62.06
25526;BME280;13424;48.424;11.258;2023-05-19T10:39:44;95949.47;;;16.11;62.59
25526;BME280;13424;48.424;11.258;2023-05-19T10:42:17;95958.06;;;16.03;62.23
25526;BME280;13424;48.424;11.258;2023-05-19T10:45:12;95946.06;;;16.82;60.46
25526;BME280;13424;48.424;11.258;2023-05-19T10:47:40;95943.88;;;16.43;60.49
25526;BME280;13424;48.424;11.258;2023-05-19T10:50:07;95947.91;;;16.51;61.82
25526;BME280;13424;48.424;11.258;2023-05-19T10:52:37;95943.63;;;16.65;60.85
25526;BME280;13424;48.424;11.258;2023-05-19T10:55:06;95946.22;;;17.56;58.69
25526;BME280;13424;48.424;11.258;2023-05-19T10:57:33;95951.13;;;17.34;59.97
25526;BME280;13424;48.424;11.258;2023-05-19T11:00:27;95951.66;;;17.41;59.77
25526;BME280;13424;48.424;11.258;2023-05-19T11:02:54;95944.72;;;17.05;59.99
25526;BME280;13424;48.424;11.258;2023-05-19T11:05:45;95941.50;;;16.72;61.70
25526;BME280;13424;48.424;11.258;2023-05-19T11:08:14;95946.31;;;17.16;61.07
25526;BME280;13424;48.424;11.258;2023-05-19T11:10:45;95944.16;;;17.13;60.32
25526;BME280;13424;48.424;11.258;2023-05-19T11:13:18;95943.91;;;16.63;61.63
25526;BME280;13424;48.424;11.258;2023-05-19T11:19:56;95942.03;;;16.89;61.54
25526;BME280;13424;48.424;11.258;2023-05-19T11:22:28;95942.06;;;16.69;61.29
25526;BME280;13424;48.424;11.258;2023-05-19T11:24:56;95945.81;;;16.78;61.36
25526;BME280;13424;48.424;11.258;2023-05-19T11:27:25;95940.81;;;17.51;60.63
25526;BME280;13424;48.424;11.258;2023-05-19T11:29:58;95943.31;;;17.27;60.48
25526;BME280;13424;48.424;11.258;2023-05-19T11:32:28;95937.72;;;16.93;60.60
25526;BME280;13424;48.424;11.258;2023-05-19T11:34:56;95937.28;;;18.26;60.52
25526;BME280;13424;48.424;11.258;2023-05-19T11:37:22;95937.81;;;17.78;59.54
25526;BME280;13424;48.424;11.258;2023-05-19T11:39:48;95923.44;;;18.32;56.91
25526;BME280;13424;48.424;11.258;2023-05-19T11:42:15;95924.78;;;18.35;57.53
25526;BME280;13424;48.424;11.258;2023-05-19T11:44:42;95938.91;;;19.53;57.46
25526;BME280;13424;48.424;11.258;2023-05-19T11:47:15;95945.31;;;19.33;56.10
25526;BME280;13424;48.424;11.258;2023-05-19T11:49:48;95937.50;;;18.74;56.71
25526;BME280;13424;48.424;11.258;2023-05-19T11:52:14;95940.19;;;19.03;57.48
25526;BME280;13424;48.424;11.258;2023-05-19T11:54:39;95934.75;;;19.37;58.41
25526;BME280;13424;48.424;11.258;2023-05-19T11:57:16;95937.13;;;19.91;56.18
25526;BME280;13424;48.424;11.258;2023-05-19T11:59:41;95951.25;;;20.07;54.59
25526;BME280;13424;48.424;11.258;2023-05-19T12:02:24;95938.31;;;19.56;55.63
25526;BME280;13424;48.424;11.258;2023-05-19T12:04:51;95932.88;;;19.08;55.89
25526;BME280;13424;48.424;11.258;2023-05-19T12:07:22;95929.13;;;19.04;55.98
25526;BME280;13424;48.424;11.258;2023-05-19T12:09:49;95923.22;;;18.63;57.02
25526;BME280;13424;48.424;11.258;2023-05-19T12:12:19;95921.63;;;18.67;58.20
25526;BME280;13424;48.424;11.258;2023-05-19T12:14:47;95916.06;;;19.11;56.69
25526;BME280;13424;48.424;11.258;2023-05-19T12:17:16;95924.38;;;18.57;58.53
25526;BME280;13424;48.424;11.258;2023-05-19T12:19:45;95923.44;;;19.06;57.35
25526;BME280;13424;48.424;11.258;2023-05-19T12:22:11;95923.50;;;19.24;56.46
25526;BME280;13424;48.424;11.258;2023-05-19T12:24:37;95921.03;;;19.04;57.04
25526;BME280;13424;48.424;11.258;2023-05-19T12:29:42;95925.69;;;18.59;58.21
25526;BME280;13424;48.424;11.258;2023-05-19T12:32:08;95926.97;;;19.01;56.67
25526;BME280;13424;48.424;11.258;2023-05-19T12:34:37;95925.38;;;19.29;57.32
25526;BME280;13424;48.424;11.258;2023-05-19T12:37:04;95912.91;;;19.04;58.72
25526;BME280;13424;48.424;11.258;2023-05-19T12:39:31;95914.09;;;18.59;58.29
25526;BME280;13424;48.424;11.258;2023-05-19T12:42:06;95909.00;;;19.15;57.15
25526;BME280;13424;48.424;11.258;2023-05-19T12:44:49;95906.47;;;19.48;56.01
25526;BME280;13424;48.424;11.258;2023-05-19T12:47:18;95907.88;;;19.69;56.88
25526;BME280;13424;48.424;11.258;2023-05-19T12:50:02;95910.09;;;19.86;56.50
25526;BME280;13424;48.424;11.258;2023-05-19T12:52:29;95905.97;;;19.46;56.77
25526;BME280;13424;48.424;11.258;2023-05-19T12:55:00;95907.69;;;19.37;55.81
25526;BME280;13424;48.424;11.258;2023-05-19T12:57:27;95912.25;;;19.65;56.17
25526;BME280;13424;48.424;11.258;2023-05-19T13:00:06;95908.59;;;19.99;56.10
25526;BME280;13424;48.424;11.258;2023-05-19T13:02:35;95897.59;;;18.65;58.09
25526;BME280;13424;48.424;11.258;2023-05-19T13:05:02;95903.22;;;18.30;59.29
25526;BME280;13424;48.424;11.258;2023-05-19T13:07:29;95903.53;;;18.96;57.54
25526;BME280;13424;48.424;11.258;2023-05-19T13:09:55;95900.31;;;19.18;57.09
25526;BME280;13424;48.424;11.258;2023-05-19T13:12:21;95901.84;;;19.30;57.68
25526;BME280;13424;48.424;11.258;2023-05-19T13:14:47;95898.41;;;19.43;56.80
25526;BME280;13424;48.424;11.258;2023-05-19T13:17:12;95900.56;;;19.22;56.94
25526;BME280;13424;48.424;11.258;2023-05-19T13:19:38;95897.13;;;19.64;56.77
25526;BME280;13424;48.424;11.258;2023-05-19T13:22:04;95889.41;;;19.76;55.47
25526;BME280;13424;48.424;11.258;2023-05-19T13:24:30;95886.78;;;20.09;56.26
25526;BME280;13424;48.424;11.258;2023-05-19T13:26:56;95886.53;;;20.95;53.34
25526;BME280;13424;48.424;11.258;2023-05-19T13:29:21;95883.63;;;19.83;55.03
25526;BME280;13424;48.424;11.258;2023-05-19T13:31:47;95888.22;;;20.90;53.38
25526;BME280;13424;48.424;11.258;2023-05-19T13:34:13;95895.19;;;21.24;52.56
25526;BME280;13424;48.424;11.258;2023-05-19T13:36:39;95879.50;;;20.42;54.17
25526;BME280;13424;48.424;11.258;2023-05-19T13:39:05;95884.31;;;21.43;53.03
25526;BME280;13424;48.424;11.258;2023-05-19T13:41:31;95879.38;;;21.31;54.15
25526;BME280;13424;48.424;11.258;2023-05-19T13:43:57;95874.66;;;20.90;53.96
25526;BME280;13424;48.424;11.258;2023-05-19T13:46:26;95872.78;;;21.87;52.51